Time;durP1;ratioP1;P1;durP2;ratioP2;P2;SDS_P1;SDS_P2;PMS_P1;PMS_P2;Temp;Humidity;BMP_temperature;BMP_pressure;BME280_temperature;BME280_humidity;BME280_pressure;Samples;Min_cycle;Max_cycle;Signal;HPM_P1;HPM_P2
2024/01/10 00:01:05;;;;;;;21.63;8.25;;;-3.60;98.00;;;;;;5050069;28;20251;-68
2024/01/10 00:03:33;;;;;;;25.00;8.93;;;-3.60;98.00;;;;;;5049939;28;20203;-66
2024/01/10 00:06:00;;;;;;;24.20;8.07;;;-3.60;98.00;;;;;;5049627;28;20465;-67
2024/01/10 00:08:27;;;;;;;21.00;8.02;;;-3.50;98.00;;;;;;5050605;28;20214;-67
2024/01/10 00:10:54;;;;;;;23.42;7.95;;;-3.40;98.00;;;;;;5032688;28;20219;-68
2024/01/10 00:13:23;;;;;;;22.55;8.57;;;-3.30;98.00;;;;;;5050524;28;20201;-67
2024/01/10 00:15:56;;;;;;;23.88;7.72;;;-3.40;98.00;;;;;;5050373;28;20361;-67
2024/01/10 00:18:23;;;;;;;24.17;7.90;;;-3.40;98.00;;;;;;5050141;28;20254;-66
2024/01/10 00:20:50;;;;;;;25.00;8.50;;;-3.30;98.00;;;;;;5050466;28;20203;-66
2024/01/10 00:23:17;;;;;;;25.58;8.85;;;-3.30;98.00;;;;;;5050142;28;20204;-67
2024/01/10 00:25:46;;;;;;;24.92;9.15;;;-3.20;98.00;;;;;;5032343;28;20266;-67
2024/01/10 00:28:13;;;;;;;21.48;7.85;;;-3.20;98.00;;;;;;5049496;28;20323;-66
2024/01/10 00:30:42;;;;;;;23.83;7.60;;;-3.10;98.00;;;;;;5053433;28;20372;-67
2024/01/10 00:33:11;;;;;;;32.10;9.75;;;-3.20;98.00;;;;;;5054072;28;20200;-67
2024/01/10 00:35:38;;;;;;;21.70;9.00;;;-3.10;98.00;;;;;;5054081;28;20295;-67
2024/01/10 00:38:05;;;;;;;24.52;9.63;;;-3.20;98.00;;;;;;5053805;28;20512;-67
2024/01/10 00:40:32;;;;;;;28.02;9.48;;;-3.10;98.00;;;;;;5054139;28;20214;-66
2024/01/10 00:42:59;;;;;;;23.58;9.13;;;-3.10;98.00;;;;;;5036369;28;20601;-67
2024/01/10 00:45:26;;;;;;;24.75;8.70;;;-3.20;98.00;;;;;;5053571;28;20211;-66
2024/01/10 00:47:55;;;;;;;25.15;9.40;;;-3.10;98.00;;;;;;5054391;28;20605;-68
2024/01/10 00:50:22;;;;;;;20.83;8.73;;;-3.10;98.00;;;;;;5053874;28;20697;-67
2024/01/10 00:52:49;;;;;;;25.50;9.23;;;-3.20;98.00;;;;;;5053629;28;20203;-66
2024/01/10 00:55:16;;;;;;;26.95;9.27;;;-3.10;98.00;;;;;;5053707;28;20692;-66
2024/01/10 00:57:43;;;;;;;27.98;10.05;;;-3.20;98.00;;;;;;5053653;28;20203;-67
2024/01/10 01:00:12;;;;;;;31.23;9.65;;;-3.50;98.00;;;;;;5053034;28;20200;-67
2024/01/10 01:02:40;;;;;;;24.77;8.50;;;-3.50;98.00;;;;;;5053646;28;20204;-68
2024/01/10 01:05:09;;;;;;;23.77;8.57;;;-3.50;98.00;;;;;;5035657;28;20217;-67
2024/01/10 01:07:37;;;;;;;28.25;10.90;;;-3.50;98.00;;;;;;5053929;28;20430;-66
2024/01/10 01:10:08;;;;;;;24.83;8.90;;;-3.50;98.00;;;;;;5053111;28;20619;-67
2024/01/10 01:12:35;;;;;;;27.10;9.35;;;-3.60;98.00;;;;;;5035595;28;20735;-67
2024/01/10 01:15:04;;;;;;;23.63;8.30;;;-3.70;98.00;;;;;;5053035;28;20212;-66
2024/01/10 01:17:31;;;;;;;27.52;9.70;;;-3.70;98.00;;;;;;5053262;28;20270;-66
2024/01/10 01:20:04;;;;;;;26.92;8.63;;;-3.60;98.00;;;;;;5052957;28;20573;-67
2024/01/10 01:22:33;;;;;;;22.20;7.60;;;-3.50;98.00;;;;;;5053264;28;20215;-67
2024/01/10 01:25:00;;;;;;;19.13;8.38;;;-3.40;98.00;;;;;;5035115;28;20507;-66
2024/01/10 01:27:26;;;;;;;24.02;8.85;;;-3.20;98.00;;;;;;5053220;28;20211;-66
2024/01/10 01:29:54;;;;;;;21.70;7.40;;;-3.20;98.00;;;;;;5052805;28;20199;-67
2024/01/10 01:32:20;;;;;;;24.45;9.38;;;-3.20;98.00;;;;;;5052428;28;20203;-66
2024/01/10 01:34:47;;;;;;;17.75;7.80;;;-3.20;98.00;;;;;;5052982;28;20204;-66
2024/01/10 01:37:14;;;;;;;25.13;9.65;;;-3.10;98.00;;;;;;5052844;28;20204;-67
2024/01/10 01:39:43;;;;;;;23.90;9.23;;;-3.10;98.00;;;;;;5034784;28;20200;-66
2024/01/10 01:42:10;;;;;;;20.87;8.77;;;-3.20;98.00;;;;;;5052438;28;20653;-67
2024/01/10 01:44:37;;;;;;;22.23;9.05;;;-3.10;98.00;;;;;;5052734;28;21030;-67
2024/01/10 01:47:05;;;;;;;26.00;9.30;;;-3.00;98.00;;;;;;5052655;28;20210;-67
2024/01/10 01:49:32;;;;;;;22.60;7.63;;;-3.00;98.00;;;;;;5052700;28;20455;-66
2024/01/10 01:52:01;;;;;;;25.20;8.43;;;-3.10;98.00;;;;;;5052435;28;20484;-66
2024/01/10 01:54:29;;;;;;;23.97;7.73;;;-3.10;98.00;;;;;;5052623;28;20496;-67
2024/01/10 01:56:58;;;;;;;20.60;7.83;;;-3.00;98.00;;;;;;5052458;28;20453;-66
2024/01/10 01:59:24;;;;;;;15.38;6.50;;;-3.10;98.00;;;;;;5034711;28;20511;-68
2024/01/10 02:02:02;;;;;;;24.77;9.07;;;-3.20;98.00;;;;;;5052623;28;20196;-66
2024/01/10 02:04:31;;;;;;;20.35;8.65;;;-3.30;98.00;;;;;;5033670;28;20524;-67
2024/01/10 02:06:59;;;;;;;24.45;8.38;;;-3.30;98.00;;;;;;5052395;28;20206;-67
2024/01/10 02:09:27;;;;;;;21.45;7.80;;;-3.30;98.00;;;;;;5052334;28;20604;-67
2024/01/10 02:11:55;;;;;;;25.85;8.48;;;-3.20;98.00;;;;;;5034736;28;20310;-68
2024/01/10 02:14:23;;;;;;;24.00;8.93;;;-3.20;98.00;;;;;;5052110;28;20209;-66
2024/01/10 02:16:53;;;;;;;20.60;7.65;;;-3.10;98.00;;;;;;5053162;28;20209;-67
2024/01/10 02:19:22;;;;;;;23.67;8.17;;;-3.10;98.00;;;;;;5052170;28;20273;-66
2024/01/10 02:21:49;;;;;;;24.23;9.20;;;-3.10;98.00;;;;;;5052895;28;20512;-66
2024/01/10 02:24:16;;;;;;;21.00;7.60;;;-3.00;98.00;;;;;;5052265;28;20540;-68
2024/01/10 02:26:45;;;;;;;21.33;8.27;;;-3.00;98.00;;;;;;5034442;28;20198;-67
2024/01/10 02:29:12;;;;;;;29.50;8.70;;;-2.90;98.00;;;;;;5052135;28;20947;-67
2024/01/10 02:31:39;;;;;;;27.30;9.37;;;-2.90;98.00;;;;;;5051700;28;20487;-66
2024/01/10 02:34:06;;;;;;;19.02;8.15;;;-2.90;98.00;;;;;;5051758;28;20475;-67
2024/01/10 02:36:33;;;;;;;23.05;9.43;;;-2.90;98.00;;;;;;5052137;28;20207;-66
2024/01/10 02:39:00;;;;;;;31.05;9.25;;;-2.90;98.00;;;;;;5052036;28;20684;-67
2024/01/10 02:41:28;;;;;;;22.43;8.03;;;-2.90;98.00;;;;;;5051183;28;20213;-66
2024/01/10 02:43:58;;;;;;;22.13;7.47;;;-2.90;98.00;;;;;;5034069;28;20549;-66
2024/01/10 02:46:27;;;;;;;23.20;9.00;;;-3.00;98.00;;;;;;5051539;28;20227;-66
2024/01/10 02:48:55;;;;;;;18.13;7.40;;;-2.90;98.00;;;;;;5051594;28;20543;-67
2024/01/10 02:51:22;;;;;;;28.55;9.13;;;-3.00;98.00;;;;;;5051470;28;21135;-66
2024/01/10 02:53:49;;;;;;;28.15;8.35;;;-3.10;98.00;;;;;;5051495;28;20257;-66
2024/01/10 02:56:17;;;;;;;22.77;8.10;;;-3.20;98.00;;;;;;5033661;28;20207;-66
2024/01/10 02:58:44;;;;;;;25.20;8.20;;;-3.30;98.00;;;;;;5033670;28;20446;-67
2024/01/10 03:01:15;;;;;;;22.85;7.95;;;-3.50;98.00;;;;;;5051283;28;20459;-67
2024/01/10 03:03:42;;;;;;;23.92;8.27;;;-3.50;98.00;;;;;;5051212;28;20299;-66
2024/01/10 03:06:09;;;;;;;18.85;7.72;;;-3.50;98.00;;;;;;5051476;28;20208;-66
2024/01/10 03:08:37;;;;;;;24.80;8.23;;;-3.50;98.00;;;;;;5051208;28;20222;-66
2024/01/10 03:11:05;;;;;;;24.70;8.25;;;-3.40;98.00;;;;;;5051120;28;20219;-67
2024/01/10 03:13:32;;;;;;;22.20;8.23;;;-3.40;98.00;;;;;;5051240;28;20203;-67
2024/01/10 03:16:00;;;;;;;26.70;8.32;;;-3.30;98.00;;;;;;5033458;28;20473;-67
2024/01/10 03:18:28;;;;;;;22.00;8.27;;;-3.20;98.00;;;;;;5051235;28;20207;-66
2024/01/10 03:20:56;;;;;;;29.38;8.77;;;-3.20;98.00;;;;;;5051066;28;20451;-66
2024/01/10 03:23:27;;;;;;;30.10;9.77;;;-3.20;98.00;;;;;;5051337;28;20204;-66
2024/01/10 03:25:54;;;;;;;23.70;8.90;;;-3.20;98.00;;;;;;5051156;28;20599;-66
2024/01/10 03:28:21;;;;;;;25.77;8.75;;;-3.10;98.00;;;;;;5033500;28;20262;-67
2024/01/10 03:30:49;;;;;;;24.00;9.30;;;-3.20;98.00;;;;;;5051034;28;20235;-66
2024/01/10 03:33:16;;;;;;;20.77;8.57;;;-3.20;98.00;;;;;;5050614;28;20458;-67
2024/01/10 03:35:47;;;;;;;21.25;8.65;;;-3.30;98.00;;;;;;5050512;28;20215;-67
2024/01/10 03:38:16;;;;;;;23.80;9.30;;;-3.40;98.00;;;;;;5050898;28;20206;-66
2024/01/10 03:40:43;;;;;;;27.58;9.45;;;-3.10;98.00;;;;;;5033396;28;20207;-66
2024/01/10 03:43:12;;;;;;;23.55;7.45;;;-3.10;98.00;;;;;;5033103;28;20208;-66
2024/01/10 03:45:40;;;;;;;22.63;8.82;;;-3.10;98.00;;;;;;5050972;28;20328;-66
2024/01/10 03:48:08;;;;;;;24.52;9.10;;;-3.00;98.00;;;;;;5050544;28;20199;-67
2024/01/10 03:50:35;;;;;;;23.58;8.82;;;-2.90;98.00;;;;;;5050749;28;20203;-67
2024/01/10 03:53:04;;;;;;;30.75;9.07;;;-2.70;98.00;;;;;;5050159;28;20207;-68
2024/01/10 03:55:31;;;;;;;18.52;7.22;;;-2.60;98.00;;;;;;5050527;28;20206;-65
2024/01/10 03:57:58;;;;;;;23.02;8.80;;;-2.50;98.00;;;;;;5050382;28;20284;-66
2024/01/10 04:00:26;;;;;;;23.60;8.73;;;-2.50;98.00;;;;;;5050593;28;20200;-66
2024/01/10 04:02:54;;;;;;;21.92;7.35;;;-2.50;98.00;;;;;;5050709;28;20486;-66
2024/01/10 04:05:21;;;;;;;23.95;8.57;;;-2.50;98.00;;;;;;5054364;28;20204;-67
2024/01/10 04:07:48;;;;;;;25.33;8.50;;;-2.40;98.00;;;;;;5035455;28;20430;-67
2024/01/10 04:10:21;;;;;;;25.37;8.83;;;-2.40;98.00;;;;;;5036115;28;20204;-67
2024/01/10 04:12:48;;;;;;;21.33;8.23;;;-2.60;98.00;;;;;;5036602;28;21075;-66
2024/01/10 04:15:15;;;;;;;25.40;8.87;;;-2.60;98.00;;;;;;5054351;28;20918;-66
2024/01/10 04:17:42;;;;;;;23.77;8.63;;;-2.60;98.00;;;;;;5054075;28;20948;-66
2024/01/10 04:20:11;;;;;;;25.67;8.07;;;-2.60;98.00;;;;;;5054331;28;20443;-66
2024/01/10 04:22:38;;;;;;;25.98;8.93;;;-2.60;98.00;;;;;;5055156;28;20511;-66
2024/01/10 04:25:08;;;;;;;24.40;8.17;;;-2.40;98.00;;;;;;5054600;28;20262;-66
2024/01/10 04:27:36;;;;;;;31.15;8.88;;;-2.60;98.00;;;;;;5053948;28;20454;-66
2024/01/10 04:30:03;;;;;;;22.37;8.47;;;-2.50;98.00;;;;;;5054547;28;20599;-67
2024/01/10 04:32:30;;;;;;;24.53;9.30;;;-2.60;98.00;;;;;;5054437;28;20486;-67
2024/01/10 04:34:57;;;;;;;19.30;7.60;;;-2.50;98.00;;;;;;5036388;28;20470;-66
2024/01/10 04:37:26;;;;;;;24.53;7.23;;;-2.50;98.00;;;;;;5036148;28;20857;-67
2024/01/10 04:39:53;;;;;;;12.88;5.43;;;-2.40;98.00;;;;;;5036755;28;20916;-67
2024/01/10 04:42:20;;;;;;;16.87;6.40;;;-2.40;98.00;;;;;;5053804;28;20207;-66
2024/01/10 04:44:49;;;;;;;25.65;6.60;;;-2.40;98.00;;;;;;5053654;28;20446;-66
2024/01/10 04:47:17;;;;;;;29.15;5.97;;;-2.40;98.00;;;;;;5019371;28;20200;-67
2024/01/10 04:49:44;;;;;;;12.60;5.75;;;-2.40;98.00;;;;;;5036253;28;20199;-67
2024/01/10 04:52:12;;;;;;;31.63;7.00;;;-2.50;98.00;;;;;;5053917;28;20248;-67
2024/01/10 04:54:39;;;;;;;17.45;6.45;;;-2.60;98.00;;;;;;5053614;28;20693;-66
2024/01/10 04:57:07;;;;;;;15.00;6.13;;;-2.70;98.00;;;;;;5053902;28;20253;-66
2024/01/10 04:59:34;;;;;;;22.13;7.32;;;-2.60;98.00;;;;;;5053862;28;20247;-66
2024/01/10 05:02:03;;;;;;;17.38;5.82;;;-2.50;98.00;;;;;;5053419;28;20641;-66
2024/01/10 05:04:30;;;;;;;24.08;7.95;;;-2.60;98.00;;;;;;5053657;28;20662;-67
2024/01/10 05:06:57;;;;;;;18.33;6.25;;;-2.70;98.00;;;;;;5053814;28;20208;-65
2024/01/10 05:09:24;;;;;;;17.73;6.30;;;-2.70;98.00;;;;;;5053408;28;20206;-67
2024/01/10 05:11:52;;;;;;;18.70;7.97;;;-2.60;98.00;;;;;;5053520;28;20225;-67
2024/01/10 05:14:19;;;;;;;20.97;7.60;;;-2.40;98.00;;;;;;5053038;28;20562;-67
2024/01/10 05:16:48;;;;;;;21.88;7.95;;;-2.20;98.00;;;;;;5052216;28;20547;-66
2024/01/10 05:19:16;;;;;;;26.02;7.93;;;-2.20;98.00;;;;;;5053242;28;20669;-66
2024/01/10 05:21:43;;;;;;;17.35;6.95;;;-2.00;98.00;;;;;;5053173;28;20543;-67
2024/01/10 05:24:10;;;;;;;19.02;7.20;;;-2.00;98.00;;;;;;5053212;28;20203;-67
2024/01/10 05:26:41;;;;;;;22.23;7.10;;;-2.00;98.00;;;;;;5053292;28;20207;-66
2024/01/10 05:29:12;;;;;;;17.63;6.90;;;-2.10;98.00;;;;;;5053484;28;20209;-66
2024/01/10 05:31:42;;;;;;;24.05;6.68;;;-1.90;98.00;;;;;;5053877;28;20510;-66
2024/01/10 05:34:09;;;;;;;21.77;7.30;;;-1.80;98.00;;;;;;5053962;28;20202;-66
2024/01/10 05:36:44;;;;;;;16.02;6.10;;;-1.80;98.00;;;;;;5053941;28;20196;-67
2024/01/10 05:39:11;;;;;;;22.83;7.15;;;-2.00;98.00;;;;;;5053578;28;20203;-66
2024/01/10 05:41:39;;;;;;;16.73;6.05;;;-2.00;98.00;;;;;;5053433;28;20210;-66
2024/01/10 05:44:06;;;;;;;25.80;7.03;;;-1.90;98.00;;;;;;5035754;28;20284;-66
2024/01/10 05:46:33;;;;;;;22.63;8.02;;;-1.90;98.00;;;;;;5053184;28;20204;-66
2024/01/10 05:49:04;;;;;;;20.27;7.27;;;-1.90;98.00;;;;;;5052862;28;20200;-68
2024/01/10 05:51:31;;;;;;;24.70;8.10;;;-1.90;98.00;;;;;;5052733;28;20939;-66
2024/01/10 05:54:01;;;;;;;21.77;7.93;;;-2.00;98.00;;;;;;5052771;28;20461;-66
2024/01/10 05:56:28;;;;;;;20.73;7.70;;;-2.10;98.00;;;;;;5018372;28;20957;-66
2024/01/10 05:58:55;;;;;;;18.33;6.90;;;-2.10;98.00;;;;;;5053053;28;20476;-66
2024/01/10 06:01:22;;;;;;;21.23;7.10;;;-2.10;98.00;;;;;;5052671;28;20516;-66
2024/01/10 06:03:49;;;;;;;22.43;6.90;;;-2.30;98.00;;;;;;5052498;28;20470;-66
2024/01/10 06:06:16;;;;;;;19.83;6.30;;;-2.40;98.00;;;;;;5052599;28;20688;-67
2024/01/10 06:08:43;;;;;;;20.70;6.90;;;-2.40;98.00;;;;;;5052401;28;20949;-67
2024/01/10 06:11:20;;;;;;;21.23;6.50;;;-2.50;98.00;;;;;;5053030;28;20521;-66
2024/01/10 06:13:47;;;;;;;20.27;6.60;;;-2.40;98.00;;;;;;5053074;28;20450;-66
2024/01/10 06:16:14;;;;;;;25.40;7.73;;;-2.50;98.00;;;;;;5052038;28;20629;-66
2024/01/10 06:18:42;;;;;;;14.77;6.20;;;-2.40;98.00;;;;;;5052453;28;20453;-66
2024/01/10 06:21:10;;;;;;;18.95;7.28;;;-2.50;98.00;;;;;;5051608;28;20522;-66
2024/01/10 06:23:37;;;;;;;24.95;8.55;;;-2.50;98.00;;;;;;5052447;28;20229;-66
2024/01/10 06:26:05;;;;;;;21.90;7.20;;;-2.60;98.00;;;;;;5034276;28;20290;-67
2024/01/10 06:28:33;;;;;;;17.13;7.32;;;-2.60;98.00;;;;;;5052118;28;20200;-67
2024/01/10 06:31:00;;;;;;;16.55;6.53;;;-2.60;98.00;;;;;;5051978;28;20212;-66
2024/01/10 06:33:27;;;;;;;21.70;7.27;;;-2.40;98.00;;;;;;5051772;28;20616;-67
2024/01/10 06:35:54;;;;;;;17.00;6.10;;;-2.40;98.00;;;;;;5052181;28;20458;-66
2024/01/10 06:38:22;;;;;;;18.27;6.78;;;-2.30;98.00;;;;;;5052100;28;20264;-66
2024/01/10 06:40:50;;;;;;;17.05;6.25;;;-2.30;98.00;;;;;;5052015;28;20232;-68
2024/01/10 06:43:17;;;;;;;21.60;7.30;;;-2.10;98.00;;;;;;5051629;28;20216;-66
2024/01/10 06:45:46;;;;;;;24.70;7.00;;;-2.00;98.00;;;;;;5052320;28;20482;-67
2024/01/10 06:48:13;;;;;;;21.85;7.53;;;-2.00;98.00;;;;;;5034764;28;20462;-67
2024/01/10 06:50:41;;;;;;;22.50;6.90;;;-2.00;98.00;;;;;;5052525;28;20208;-67
2024/01/10 06:53:08;;;;;;;24.80;7.53;;;-2.10;98.00;;;;;;5034547;28;20510;-67
2024/01/10 06:55:36;;;;;;;16.67;7.20;;;-2.00;98.00;;;;;;5051544;28;20688;-67
2024/01/10 06:58:03;;;;;;;18.45;6.68;;;-1.90;98.00;;;;;;5051713;28;20466;-67
2024/01/10 07:00:31;;;;;;;18.70;7.07;;;-1.80;98.00;;;;;;5051188;28;20291;-71
2024/01/10 07:03:03;;;;;;;22.83;8.73;;;-1.90;98.00;;;;;;5033909;28;20505;-70
2024/01/10 07:05:31;;;;;;;23.30;8.80;;;-1.90;98.00;;;;;;5051445;28;20495;-71
2024/01/10 07:07:58;;;;;;;24.27;8.27;;;-2.00;98.00;;;;;;5034189;28;20456;-70
2024/01/10 07:10:27;;;;;;;27.23;9.00;;;-2.10;98.00;;;;;;5050834;28;20448;-71
2024/01/10 07:12:54;;;;;;;27.73;8.33;;;-2.20;98.00;;;;;;5051425;28;20513;-71
2024/01/10 07:15:21;;;;;;;20.77;7.57;;;-2.30;98.00;;;;;;5051538;28;20458;-71
2024/01/10 07:17:48;;;;;;;24.58;8.45;;;-2.30;98.00;;;;;;5051513;28;20451;-70
2024/01/10 07:20:17;;;;;;;21.17;7.20;;;-2.30;98.00;;;;;;5033405;28;20208;-70
2024/01/10 07:22:45;;;;;;;22.87;6.97;;;-2.40;98.00;;;;;;5033393;28;20487;-70
2024/01/10 07:25:14;;;;;;;25.17;8.40;;;-2.50;98.00;;;;;;5051315;28;20883;-70
2024/01/10 07:27:41;;;;;;;28.98;9.57;;;-2.60;98.00;;;;;;5051174;28;20200;-70
2024/01/10 07:30:13;;;;;;;24.30;8.33;;;-2.60;98.00;;;;;;5051069;28;20196;-70
2024/01/10 07:32:41;;;;;;;23.93;8.70;;;-2.70;98.00;;;;;;5051204;28;21032;-70
2024/01/10 07:35:09;;;;;;;18.73;7.30;;;-2.70;98.00;;;;;;5051161;28;20559;-70
2024/01/10 07:37:39;;;;;;;22.70;7.82;;;-2.70;98.00;;;;;;5051121;28;20266;-70
2024/01/10 07:40:08;;;;;;;18.87;7.50;;;-2.70;98.00;;;;;;5050812;28;20262;-70
2024/01/10 07:42:35;;;;;;;23.17;7.77;;;-2.70;98.00;;;;;;5051155;28;20450;-71
2024/01/10 07:45:04;;;;;;;22.47;9.13;;;-2.70;98.00;;;;;;5069153;28;20451;-70
2024/01/10 07:47:31;;;;;;;17.17;7.03;;;-2.70;98.00;;;;;;5070725;28;20451;-71
2024/01/10 07:49:58;;;;;;;18.83;7.90;;;-2.50;98.00;;;;;;5071914;28;20493;-70
2024/01/10 07:52:25;;;;;;;26.67;8.50;;;-2.50;98.00;;;;;;5071561;28;20481;-71
2024/01/10 07:54:54;;;;;;;25.23;8.13;;;-2.40;98.00;;;;;;5053687;28;20501;-70
2024/01/10 07:57:21;;;;;;;20.37;7.70;;;-2.40;98.00;;;;;;5071766;28;20458;-71
2024/01/10 07:59:49;;;;;;;23.40;8.03;;;-2.20;98.00;;;;;;5071729;28;20449;-71
2024/01/10 08:02:24;;;;;;;25.87;8.30;;;-2.20;98.00;;;;;;5071849;28;20819;-71
2024/01/10 08:04:53;;;;;;;22.43;7.93;;;-2.20;98.00;;;;;;5071690;28;20860;-71
2024/01/10 08:07:20;;;;;;;24.33;8.90;;;-2.10;98.00;;;;;;5054386;28;20458;-71
2024/01/10 08:09:48;;;;;;;25.27;8.60;;;-2.00;98.00;;;;;;5071546;28;20541;-71
2024/01/10 08:12:16;;;;;;;28.98;9.23;;;-2.00;98.00;;;;;;5053523;28;20489;-71
2024/01/10 08:14:45;;;;;;;23.63;8.30;;;-2.00;98.00;;;;;;5071458;28;20197;-71
2024/01/10 08:17:13;;;;;;;21.10;8.17;;;-1.80;98.00;;;;;;5071465;28;20532;-71
2024/01/10 08:19:40;;;;;;;25.33;8.50;;;-1.60;98.00;;;;;;5071661;28;20452;-71
2024/01/10 08:22:07;;;;;;;24.33;7.90;;;-1.60;98.00;;;;;;5071405;28;20509;-71
2024/01/10 08:24:35;;;;;;;23.30;8.70;;;-1.60;98.00;;;;;;5071508;28;20808;-71
2024/01/10 08:27:02;;;;;;;27.58;8.80;;;-1.70;98.00;;;;;;5071670;28;20455;-71
2024/01/10 08:29:31;;;;;;;27.50;9.17;;;-1.60;98.00;;;;;;5071351;28;20239;-71
2024/01/10 08:31:59;;;;;;;31.30;8.80;;;-1.40;98.00;;;;;;5071403;28;20476;-71
2024/01/10 08:34:26;;;;;;;27.77;9.77;;;-1.20;98.00;;;;;;5071085;28;20479;-71
2024/01/10 08:36:53;;;;;;;24.50;9.00;;;-1.10;98.00;;;;;;5071221;28;20450;-70
2024/01/10 08:39:21;;;;;;;26.70;9.07;;;-1.20;98.00;;;;;;5071291;28;20455;-70
2024/01/10 08:41:49;;;;;;;25.47;8.60;;;-1.20;98.00;;;;;;5071201;28;20452;-71
2024/01/10 08:44:16;;;;;;;32.30;10.60;;;-1.30;98.00;;;;;;5037008;28;20454;-71
2024/01/10 08:46:46;;;;;;;18.87;5.23;;;-1.30;98.00;;;;;;5071196;28;20462;-67
2024/01/10 08:49:13;;;;;;;13.63;5.70;;;-0.70;98.00;;;;;;5071455;28;20521;-67
2024/01/10 08:51:42;;;;;;;24.13;7.20;;;1.30;98.00;;;;;;5074598;28;20453;-65
2024/01/10 08:54:09;;;;;;;23.50;7.70;;;2.80;98.00;;;;;;5074770;28;20571;-65
2024/01/10 08:56:36;;;;;;;31.53;11.30;;;4.00;98.00;;;;;;5074301;28;20480;-69
2024/01/10 08:59:03;;;;;;;30.60;10.87;;;4.30;98.00;;;;;;5074749;28;20783;-69
2024/01/10 09:01:30;;;;;;;32.80;11.57;;;4.00;98.00;;;;;;5056819;28;20458;-69
2024/01/10 09:03:59;;;;;;;30.43;10.50;;;3.40;98.00;;;;;;5074387;28;20527;-70
2024/01/10 09:06:26;;;;;;;28.60;11.10;;;2.50;98.00;;;;;;5074218;28;20464;-70
2024/01/10 09:08:56;;;;;;;27.53;10.50;;;2.10;98.00;;;;;;5074436;28;20455;-69
2024/01/10 09:11:24;;;;;;;30.67;10.53;;;1.40;98.00;;;;;;5057075;28;20460;-69
2024/01/10 09:13:51;;;;;;;26.20;10.43;;;0.90;98.00;;;;;;5074289;28;20523;-69
2024/01/10 09:16:22;;;;;;;29.67;10.37;;;0.50;98.00;;;;;;5074355;28;20449;-68
2024/01/10 09:18:50;;;;;;;23.67;9.70;;;0.60;98.00;;;;;;5074156;28;20456;-73
2024/01/10 09:21:22;;;;;;;31.73;11.07;;;0.50;98.00;;;;;;5074140;28;20510;-68
2024/01/10 09:23:51;;;;;;;26.53;9.70;;;0.40;98.00;;;;;;5074195;28;20525;-66
2024/01/10 09:26:18;;;;;;;25.20;9.60;;;0.20;98.00;;;;;;5074176;28;20483;-70
2024/01/10 09:28:46;;;;;;;28.37;9.20;;;0.30;98.00;;;;;;5074186;28;20506;-70
2024/01/10 09:31:15;;;;;;;26.60;9.60;;;0.40;98.00;;;;;;5071319;28;21153;-70
2024/01/10 09:33:43;;;;;;;22.37;8.73;;;0.10;98.00;;;;;;5053484;28;20500;-70
2024/01/10 09:36:10;;;;;;;29.00;9.10;;;0.00;98.00;;;;;;5053840;28;20475;-70
2024/01/10 09:38:39;;;;;;;28.17;11.47;;;-0.10;98.00;;;;;;5053670;28;20457;-70
2024/01/10 09:41:06;;;;;;;25.43;10.40;;;-0.10;98.00;;;;;;5036214;28;20461;-70
2024/01/10 09:43:36;;;;;;;26.90;9.43;;;-0.40;98.00;;;;;;5054864;28;20463;-70
2024/01/10 09:46:04;;;;;;;27.13;9.53;;;-0.40;98.00;;;;;;5073538;28;20455;-71
2024/01/10 09:48:32;;;;;;;37.20;10.60;;;-0.40;98.00;;;;;;5051151;28;20461;-70
2024/01/10 09:51:00;;;;;;;36.60;10.40;;;-0.60;98.00;;;;;;5053083;28;20448;-69
2024/01/10 09:53:30;;;;;;;24.53;9.63;;;-0.60;98.00;;;;;;5053183;28;20492;-69
2024/01/10 09:55:59;;;;;;;29.97;9.40;;;-0.70;98.00;;;;;;5053393;28;20940;-69
2024/01/10 09:58:29;;;;;;;42.03;10.40;;;-0.70;98.00;;;;;;5053263;28;20494;-69
2024/01/10 10:00:56;;;;;;;32.77;10.97;;;-0.50;98.00;;;;;;5052565;28;20833;-70
2024/01/10 10:03:23;;;;;;;30.17;10.30;;;-0.40;98.00;;;;;;5057467;28;20468;-69
2024/01/10 10:05:50;;;;;;;30.60;10.30;;;-0.30;98.00;;;;;;5072866;28;20456;-69
2024/01/10 10:08:21;;;;;;;34.80;10.83;;;-0.40;98.00;;;;;;5055279;28;20459;-69
2024/01/10 10:10:50;;;;;;;30.93;10.50;;;-0.40;98.00;;;;;;5072966;28;20977;-69
2024/01/10 10:13:30;;;;;;;29.60;9.37;;;-0.40;98.00;;;;;;5055152;28;20491;-70
2024/01/10 10:16:01;;;;;;;26.40;10.37;;;-0.40;98.00;;;;;;5071890;28;20818;-70
2024/01/10 10:18:31;;;;;;;26.27;10.60;;;-0.30;98.00;;;;;;5052847;28;20815;-69
2024/01/10 10:21:09;;;;;;;31.30;10.30;;;-0.30;98.00;;;;;;5053063;28;20449;-69
2024/01/10 10:23:37;;;;;;;32.10;10.77;;;-0.20;98.00;;;;;;5069486;28;20494;-69
2024/01/10 10:26:20;;;;;;;31.77;10.70;;;-0.10;98.00;;;;;;5072631;28;20461;-69
2024/01/10 10:28:49;;;;;;;28.73;9.73;;;-0.10;98.00;;;;;;5072395;28;20890;-70
2024/01/10 10:31:20;;;;;;;24.17;9.50;;;0.00;98.00;;;;;;5071892;28;20448;-69
2024/01/10 10:33:49;;;;;;;28.90;9.73;;;0.10;98.00;;;;;;5072488;28;20487;-70
2024/01/10 10:36:16;;;;;;;28.13;10.73;;;0.10;98.00;;;;;;5072350;28;20486;-69
2024/01/10 10:38:43;;;;;;;32.40;10.87;;;0.30;98.00;;;;;;5070967;28;20515;-69
2024/01/10 10:41:11;;;;;;;34.47;10.70;;;0.50;98.00;;;;;;5071638;28;20968;-69
2024/01/10 10:43:39;;;;;;;33.57;12.33;;;0.50;98.00;;;;;;5066564;28;20519;-70
2024/01/10 10:46:09;;;;;;;37.10;11.03;;;0.40;98.00;;;;;;5072309;28;20818;-69
2024/01/10 10:48:37;;;;;;;36.30;11.40;;;0.40;98.00;;;;;;5072275;28;20455;-69
2024/01/10 10:51:07;;;;;;;33.77;11.17;;;0.50;98.00;;;;;;5072237;28;20882;-69
2024/01/10 10:53:36;;;;;;;33.77;10.53;;;0.60;98.00;;;;;;5072311;28;20488;-69
2024/01/10 10:56:05;;;;;;;38.07;12.23;;;0.70;98.00;;;;;;5071591;28;20518;-69
2024/01/10 10:58:38;;;;;;;31.10;11.63;;;0.60;98.00;;;;;;5071671;28;20459;-70
2024/01/10 11:01:08;;;;;;;35.63;10.73;;;0.60;98.00;;;;;;5071552;28;20976;-69
2024/01/10 11:03:37;;;;;;;32.57;11.37;;;0.80;98.00;;;;;;5071874;28;20883;-70
2024/01/10 11:06:05;;;;;;;31.20;11.10;;;0.90;98.00;;;;;;5054658;28;20494;-70
2024/01/10 11:08:37;;;;;;;31.30;10.90;;;1.00;98.00;;;;;;5072576;28;20452;-69
2024/01/10 11:11:12;;;;;;;30.60;11.33;;;1.20;98.00;;;;;;5072092;28;21006;-70
2024/01/10 11:13:55;;;;;;;34.90;11.97;;;1.30;98.00;;;;;;5071204;28;20483;-69
2024/01/10 11:16:51;;;;;;;31.60;11.07;;;1.30;98.00;;;;;;5072070;28;20922;-70
2024/01/10 11:19:57;;;;;;;34.37;10.87;;;1.40;98.00;;;;;;5072082;28;20486;-69
2024/01/10 11:22:41;;;;;;;37.53;11.83;;;1.50;98.00;;;;;;5071972;28;20534;-69
2024/01/10 11:25:08;;;;;;;34.83;11.70;;;1.40;98.00;;;;;;5071921;28;20463;-69
2024/01/10 11:27:38;;;;;;;31.77;11.70;;;1.50;98.00;;;;;;5072005;28;20933;-70
2024/01/10 11:30:07;;;;;;;34.20;12.00;;;1.60;98.00;;;;;;5071912;28;20451;-70
2024/01/10 11:32:35;;;;;;;31.67;11.23;;;1.70;98.00;;;;;;5071667;28;20463;-70
2024/01/10 11:35:10;;;;;;;34.07;11.77;;;1.80;98.00;;;;;;5053311;28;20584;-69
2024/01/10 11:37:45;;;;;;;37.17;12.13;;;2.00;98.00;;;;;;5054919;28;20810;-69
2024/01/10 11:40:13;;;;;;;36.90;12.03;;;2.00;98.00;;;;;;5071947;28;20456;-69
2024/01/10 11:42:45;;;;;;;36.03;11.83;;;2.10;98.00;;;;;;5072209;28;20456;-70
2024/01/10 11:45:38;;;;;;;37.37;12.97;;;2.20;98.00;;;;;;5071590;28;20488;-69
2024/01/10 11:48:08;;;;;;;38.20;12.60;;;2.20;98.00;;;;;;5071403;28;20456;-69
2024/01/10 11:50:37;;;;;;;31.67;11.83;;;2.20;98.00;;;;;;5071683;28;20452;-69
2024/01/10 11:53:04;;;;;;;31.30;11.40;;;2.10;98.00;;;;;;5071432;28;20459;-69
2024/01/10 11:55:52;;;;;;;32.70;12.10;;;1.90;98.00;;;;;;5037292;28;20492;-70
2024/01/10 11:58:19;;;;;;;34.57;10.90;;;2.10;98.00;;;;;;5053628;28;20519;-70
2024/01/10 12:00:48;;;;;;;34.67;11.33;;;2.20;98.00;;;;;;5071668;28;20521;-69
2024/01/10 12:03:18;;;;;;;37.73;12.30;;;2.50;98.00;;;;;;5053824;28;20917;-69
2024/01/10 12:05:45;;;;;;;29.57;11.63;;;2.50;98.00;;;;;;5071136;28;20532;-70
2024/01/10 12:08:12;;;;;;;35.10;11.77;;;2.50;98.00;;;;;;5071304;28;20449;-69
2024/01/10 12:10:40;;;;;;;33.50;12.13;;;2.60;98.00;;;;;;5053720;28;20942;-70
2024/01/10 12:13:07;;;;;;;41.90;13.07;;;2.60;98.00;;;;;;5071196;28;20564;-69
2024/01/10 12:15:34;;;;;;;40.83;12.07;;;2.50;98.00;;;;;;5070828;28;21028;-70
2024/01/10 12:18:02;;;;;;;35.90;11.90;;;2.50;98.00;;;;;;5071005;28;20926;-70
2024/01/10 12:20:31;;;;;;;34.63;11.40;;;2.40;98.00;;;;;;5071243;28;20471;-69
2024/01/10 12:22:58;;;;;;;34.97;12.07;;;2.60;98.00;;;;;;5071265;28;20971;-69
2024/01/10 12:25:25;;;;;;;34.27;11.53;;;2.80;98.00;;;;;;5073346;28;20460;-69
2024/01/10 12:27:52;;;;;;;32.07;11.30;;;2.80;98.00;;;;;;5074876;28;20480;-70
2024/01/10 12:30:20;;;;;;;32.50;11.80;;;3.10;98.00;;;;;;5075036;28;20455;-69
2024/01/10 12:32:52;;;;;;;36.33;12.70;;;3.40;98.00;;;;;;5057215;28;20506;-70
2024/01/10 12:35:21;;;;;;;36.60;12.93;;;3.60;98.00;;;;;;5075216;28;20856;-69
2024/01/10 12:37:56;;;;;;;38.53;12.73;;;3.90;98.00;;;;;;5057633;28;20456;-69
2024/01/10 12:40:23;;;;;;;39.13;13.13;;;4.10;98.00;;;;;;5074900;28;20461;-69
2024/01/10 12:43:02;;;;;;;41.47;12.90;;;4.30;98.00;;;;;;5056885;28;20518;-69